River Falls, Wisconsin
Current Conditions -  °F | °C
As of 10:10 AM on Wednesday 28 Jan 2015 (Local Time) from K21D Reporting Station
Haze Haze  
Wind Chill: 18°   Ceiling: 800
Heat Index: 28°   Visibility: 5mi
Dew Point: 27°   Wind: 13mph
Humidity: 93%   Direction: 130°SE
Pressure: 29.99"   Gusts: 16mph
Location:  44.85°N, 92.63°W
Report Text: K21D 281610Z AUTO 13011G14KT 5SM BR OVC008 M02/M03 A2999 RMK AO2
Loading
Personal Weather Stations






























Interactive Weather Map New forecast layout! Learn more

10-Day Weather Forecast

Advertisements
Track Severe Weather on mobile